sensor_id;sensor_type;location;lat;lon;timestamp;pressure;altitude;pressure_sealevel;temperature
69435;BMP180;56625;54.322;18.582;2022-10-04T00:01:05;100593.80;;;10.90
69435;BMP180;56625;54.322;18.582;2022-10-04T00:04:01;100596.20;;;10.80
69435;BMP180;56625;54.322;18.582;2022-10-04T00:06:28;100596.60;;;10.70
69435;BMP180;56625;54.322;18.582;2022-10-04T00:09:06;100602.20;;;10.70
69435;BMP180;56625;54.322;18.582;2022-10-04T00:11:36;100598.40;;;10.64
69435;BMP180;56625;54.322;18.582;2022-10-04T00:14:35;100594.60;;;10.60
69435;BMP180;56625;54.322;18.582;2022-10-04T00:17:13;100596.60;;;10.60
69435;BMP180;56625;54.322;18.582;2022-10-04T00:19:47;100595.20;;;10.56
69435;BMP180;56625;54.322;18.582;2022-10-04T00:22:17;100593.20;;;10.56
69435;BMP180;56625;54.322;18.582;2022-10-04T00:27:35;100594.40;;;10.60
69435;BMP180;56625;54.322;18.582;2022-10-04T00:40:32;100595.00;;;10.70
69435;BMP180;56625;54.322;18.582;2022-10-04T00:43:11;100597.60;;;10.70
69435;BMP180;56625;54.322;18.582;2022-10-04T00:45:51;100595.00;;;10.70
69435;BMP180;56625;54.322;18.582;2022-10-04T00:48:40;100596.00;;;10.70
69435;BMP180;56625;54.322;18.582;2022-10-04T00:54:08;100590.60;;;10.60
69435;BMP180;56625;54.322;18.582;2022-10-04T00:56:50;100592.80;;;10.60
69435;BMP180;56625;54.322;18.582;2022-10-04T00:59:49;100597.20;;;10.60
69435;BMP180;56625;54.322;18.582;2022-10-04T01:03:00;100591.80;;;10.60
69435;BMP180;56625;54.322;18.582;2022-10-04T01:05:38;100587.80;;;10.60
69435;BMP180;56625;54.322;18.582;2022-10-04T01:08:17;100582.60;;;10.60
69435;BMP180;56625;54.322;18.582;2022-10-04T01:11:08;100581.40;;;10.60
69435;BMP180;56625;54.322;18.582;2022-10-04T01:13:49;100570.00;;;10.70
69435;BMP180;56625;54.322;18.582;2022-10-04T01:18:47;100585.00;;;10.70
69435;BMP180;56625;54.322;18.582;2022-10-04T01:29:09;100584.60;;;10.80
69435;BMP180;56625;54.322;18.582;2022-10-04T01:31:40;100584.40;;;10.80
69435;BMP180;56625;54.322;18.582;2022-10-04T01:34:13;100588.20;;;10.80
69435;BMP180;56625;54.322;18.582;2022-10-04T01:36:40;100595.20;;;10.80
69435;BMP180;56625;54.322;18.582;2022-10-04T01:39:07;100590.00;;;10.80
69435;BMP180;56625;54.322;18.582;2022-10-04T01:44:40;100595.20;;;10.80
69435;BMP180;56625;54.322;18.582;2022-10-04T01:47:18;100599.00;;;10.80
69435;BMP180;56625;54.322;18.582;2022-10-04T01:49:49;100597.60;;;10.80
69435;BMP180;56625;54.322;18.582;2022-10-04T01:52:24;100596.80;;;10.76
69435;BMP180;56625;54.322;18.582;2022-10-04T01:55:01;100600.40;;;10.70
69435;BMP180;56625;54.322;18.582;2022-10-04T01:58:27;100601.80;;;10.70
69435;BMP180;56625;54.322;18.582;2022-10-04T02:00:41;100598.40;;;10.70
69435;BMP180;56625;54.322;18.582;2022-10-04T02:03:18;100598.60;;;10.70
69435;BMP180;56625;54.322;18.582;2022-10-04T02:05:53;100600.60;;;10.70
69435;BMP180;56625;54.322;18.582;2022-10-04T02:08:34;100599.20;;;10.70
69435;BMP180;56625;54.322;18.582;2022-10-04T02:11:04;100605.20;;;10.64
69435;BMP180;56625;54.322;18.582;2022-10-04T02:13:37;100601.40;;;10.60
69435;BMP180;56625;54.322;18.582;2022-10-04T02:16:11;100608.60;;;10.60
69435;BMP180;56625;54.322;18.582;2022-10-04T02:18:40;100602.00;;;10.60
69435;BMP180;56625;54.322;18.582;2022-10-04T02:21:11;100603.40;;;10.60
69435;BMP180;56625;54.322;18.582;2022-10-04T02:23:39;100593.20;;;10.50
69435;BMP180;56625;54.322;18.582;2022-10-04T02:26:09;100604.60;;;10.50
69435;BMP180;56625;54.322;18.582;2022-10-04T02:28:37;100598.00;;;10.50
69435;BMP180;56625;54.322;18.582;2022-10-04T02:31:05;100600.00;;;10.50
69435;BMP180;56625;54.322;18.582;2022-10-04T02:33:57;100600.20;;;10.50
69435;BMP180;56625;54.322;18.582;2022-10-04T02:36:26;100597.60;;;10.50
69435;BMP180;56625;54.322;18.582;2022-10-04T02:39:08;100602.80;;;10.50
69435;BMP180;56625;54.322;18.582;2022-10-04T02:44:44;100611.20;;;10.50
69435;BMP180;56625;54.322;18.582;2022-10-04T02:47:21;100612.00;;;10.50
69435;BMP180;56625;54.322;18.582;2022-10-04T02:49:54;100612.80;;;10.50
69435;BMP180;56625;54.322;18.582;2022-10-04T02:52:29;100616.60;;;10.50
69435;BMP180;56625;54.322;18.582;2022-10-04T02:55:08;100621.80;;;10.50
69435;BMP180;56625;54.322;18.582;2022-10-04T02:57:41;100620.40;;;10.44
69435;BMP180;56625;54.322;18.582;2022-10-04T03:02:34;100619.60;;;10.40
69435;BMP180;56625;54.322;18.582;2022-10-04T03:05:19;100615.00;;;10.40
69435;BMP180;56625;54.322;18.582;2022-10-04T03:07:48;100617.20;;;10.40
69435;BMP180;56625;54.322;18.582;2022-10-04T03:10:17;100619.20;;;10.40
69435;BMP180;56625;54.322;18.582;2022-10-04T03:12:49;100616.40;;;10.40
69435;BMP180;56625;54.322;18.582;2022-10-04T03:15:16;100616.60;;;10.30
69435;BMP180;56625;54.322;18.582;2022-10-04T03:17:43;100614.60;;;10.30
69435;BMP180;56625;54.322;18.582;2022-10-04T03:20:12;100615.20;;;10.30
69435;BMP180;56625;54.322;18.582;2022-10-04T03:22:44;100612.00;;;10.30
69435;BMP180;56625;54.322;18.582;2022-10-04T03:25:21;100614.80;;;10.30
69435;BMP180;56625;54.322;18.582;2022-10-04T03:27:50;100617.80;;;10.20
69435;BMP180;56625;54.322;18.582;2022-10-04T03:30:17;100622.00;;;10.20
69435;BMP180;56625;54.322;18.582;2022-10-04T03:32:49;100622.80;;;10.20
69435;BMP180;56625;54.322;18.582;2022-10-04T03:35:36;100624.40;;;10.20
69435;BMP180;56625;54.322;18.582;2022-10-04T03:38:10;100620.60;;;10.20
69435;BMP180;56625;54.322;18.582;2022-10-04T03:40:43;100620.80;;;10.20
69435;BMP180;56625;54.322;18.582;2022-10-04T03:43:13;100619.00;;;10.20
69435;BMP180;56625;54.322;18.582;2022-10-04T03:45:41;100623.40;;;10.20
69435;BMP180;56625;54.322;18.582;2022-10-04T03:48:13;100625.00;;;10.20
69435;BMP180;56625;54.322;18.582;2022-10-04T03:50:48;100631.20;;;10.30
69435;BMP180;56625;54.322;18.582;2022-10-04T03:53:28;100629.40;;;10.30
69435;BMP180;56625;54.322;18.582;2022-10-04T03:55:57;100630.60;;;10.26
69435;BMP180;56625;54.322;18.582;2022-10-04T03:58:30;100631.40;;;10.24
69435;BMP180;56625;54.322;18.582;2022-10-04T04:01:22;100629.40;;;10.26
69435;BMP180;56625;54.322;18.582;2022-10-04T04:07:06;100637.80;;;10.20
69435;BMP180;56625;54.322;18.582;2022-10-04T04:09:47;100644.00;;;10.20
69435;BMP180;56625;54.322;18.582;2022-10-04T04:12:26;100644.00;;;10.20
69435;BMP180;56625;54.322;18.582;2022-10-04T04:15:00;100643.80;;;10.20
69435;BMP180;56625;54.322;18.582;2022-10-04T04:17:36;100648.20;;;10.20
69435;BMP180;56625;54.322;18.582;2022-10-04T04:20:16;100652.40;;;10.20
69435;BMP180;56625;54.322;18.582;2022-10-04T04:22:56;100650.80;;;10.20
69435;BMP180;56625;54.322;18.582;2022-10-04T04:25:27;100650.80;;;10.16
69435;BMP180;56625;54.322;18.582;2022-10-04T04:28:13;100657.20;;;10.10
69435;BMP180;56625;54.322;18.582;2022-10-04T04:30:50;100657.00;;;10.14
69435;BMP180;56625;54.322;18.582;2022-10-04T04:33:28;100660.40;;;10.10
69435;BMP180;56625;54.322;18.582;2022-10-04T04:36:04;100662.00;;;10.10
69435;BMP180;56625;54.322;18.582;2022-10-04T04:38:32;100672.00;;;10.10
69435;BMP180;56625;54.322;18.582;2022-10-04T04:41:09;100670.40;;;10.14
69435;BMP180;56625;54.322;18.582;2022-10-04T04:43:42;100670.60;;;10.10
69435;BMP180;56625;54.322;18.582;2022-10-04T04:46:09;100673.60;;;10.12
69435;BMP180;56625;54.322;18.582;2022-10-04T04:49:03;100678.20;;;10.20
69435;BMP180;56625;54.322;18.582;2022-10-04T04:51:31;100685.00;;;10.20
69435;BMP180;56625;54.322;18.582;2022-10-04T04:54:02;100687.40;;;10.20
69435;BMP180;56625;54.322;18.582;2022-10-04T04:56:31;100690.00;;;10.20
69435;BMP180;56625;54.322;18.582;2022-10-04T04:59:02;100689.40;;;10.20
69435;BMP180;56625;54.322;18.582;2022-10-04T05:01:50;100693.60;;;10.20
69435;BMP180;56625;54.322;18.582;2022-10-04T05:04:21;100687.40;;;10.20
69435;BMP180;56625;54.322;18.582;2022-10-04T05:07:15;100686.20;;;10.20
69435;BMP180;56625;54.322;18.582;2022-10-04T05:09:42;100689.00;;;10.20
69435;BMP180;56625;54.322;18.582;2022-10-04T05:12:21;100689.40;;;10.20
69435;BMP180;56625;54.322;18.582;2022-10-04T05:14:52;100688.80;;;10.20
69435;BMP180;56625;54.322;18.582;2022-10-04T05:17:24;100693.40;;;10.28
69435;BMP180;56625;54.322;18.582;2022-10-04T05:19:57;100691.80;;;10.30
69435;BMP180;56625;54.322;18.582;2022-10-04T05:22:31;100694.00;;;10.30
69435;BMP180;56625;54.322;18.582;2022-10-04T05:25:32;100693.80;;;10.40
69435;BMP180;56625;54.322;18.582;2022-10-04T05:27:59;100691.40;;;10.50
69435;BMP180;56625;54.322;18.582;2022-10-04T05:30:43;100692.40;;;10.52
69435;BMP180;56625;54.322;18.582;2022-10-04T05:33:35;100694.40;;;10.64
69435;BMP180;56625;54.322;18.582;2022-10-04T05:38:52;100696.20;;;10.80
69435;BMP180;56625;54.322;18.582;2022-10-04T05:42:09;100694.60;;;10.90
69435;BMP180;56625;54.322;18.582;2022-10-04T05:44:52;100700.20;;;11.00
69435;BMP180;56625;54.322;18.582;2022-10-04T05:47:22;100703.00;;;11.08
69435;BMP180;56625;54.322;18.582;2022-10-04T05:49:54;100709.20;;;11.14
69435;BMP180;56625;54.322;18.582;2022-10-04T05:52:35;100713.20;;;11.48
69435;BMP180;56625;54.322;18.582;2022-10-04T06:04:15;100717.80;;;11.50
69435;BMP180;56625;54.322;18.582;2022-10-04T06:07:17;100722.60;;;11.56
69435;BMP180;56625;54.322;18.582;2022-10-04T06:10:29;100717.80;;;11.60
69435;BMP180;56625;54.322;18.582;2022-10-04T06:13:53;100723.60;;;11.68
69435;BMP180;56625;54.322;18.582;2022-10-04T06:19:56;100726.40;;;11.80
69435;BMP180;56625;54.322;18.582;2022-10-04T06:22:27;100734.40;;;11.90
69435;BMP180;56625;54.322;18.582;2022-10-04T06:25:01;100733.80;;;11.90
69435;BMP180;56625;54.322;18.582;2022-10-04T06:27:43;100732.20;;;12.00
69435;BMP180;56625;54.322;18.582;2022-10-04T06:30:17;100733.00;;;12.10
69435;BMP180;56625;54.322;18.582;2022-10-04T06:36:35;100743.20;;;12.30
69435;BMP180;56625;54.322;18.582;2022-10-04T06:45:26;100745.80;;;12.60
69435;BMP180;56625;54.322;18.582;2022-10-04T06:48:16;100751.20;;;12.70
69435;BMP180;56625;54.322;18.582;2022-10-04T06:54:41;100752.40;;;12.70
69435;BMP180;56625;54.322;18.582;2022-10-04T07:00:25;100756.80;;;12.90
69435;BMP180;56625;54.322;18.582;2022-10-04T07:05:45;100759.40;;;13.20
69435;BMP180;56625;54.322;18.582;2022-10-04T07:08:21;100766.00;;;13.10
69435;BMP180;56625;54.322;18.582;2022-10-04T07:11:48;100763.20;;;13.20
69435;BMP180;56625;54.322;18.582;2022-10-04T07:14:25;100768.00;;;13.20
69435;BMP180;56625;54.322;18.582;2022-10-04T07:17:11;100767.20;;;13.32
69435;BMP180;56625;54.322;18.582;2022-10-04T07:19:45;100760.80;;;13.50
69435;BMP180;56625;54.322;18.582;2022-10-04T07:22:33;100770.60;;;13.50
69435;BMP180;56625;54.322;18.582;2022-10-04T07:25:20;100775.40;;;13.60
69435;BMP180;56625;54.322;18.582;2022-10-04T07:27:54;100783.00;;;13.70
69435;BMP180;56625;54.322;18.582;2022-10-04T07:30:51;100788.80;;;13.76
69435;BMP180;56625;54.322;18.582;2022-10-04T07:33:23;100788.00;;;13.90
69435;BMP180;56625;54.322;18.582;2022-10-04T07:36:20;100794.40;;;14.10
69435;BMP180;56625;54.322;18.582;2022-10-04T07:38:55;100793.80;;;14.10
69435;BMP180;56625;54.322;18.582;2022-10-04T07:41:35;100801.20;;;14.10
69435;BMP180;56625;54.322;18.582;2022-10-04T07:44:17;100802.00;;;14.00
69435;BMP180;56625;54.322;18.582;2022-10-04T07:47:20;100802.60;;;13.90
69435;BMP180;56625;54.322;18.582;2022-10-04T07:49:47;100796.60;;;13.80
69435;BMP180;56625;54.322;18.582;2022-10-04T07:52:51;100802.20;;;13.90
69435;BMP180;56625;54.322;18.582;2022-10-04T07:55:44;100808.60;;;14.00
69435;BMP180;56625;54.322;18.582;2022-10-04T07:58:30;100805.00;;;14.00
69435;BMP180;56625;54.322;18.582;2022-10-04T08:01:25;100814.40;;;14.00
69435;BMP180;56625;54.322;18.582;2022-10-04T08:04:39;100812.80;;;14.00
69435;BMP180;56625;54.322;18.582;2022-10-04T08:10:34;100814.40;;;14.28
69435;BMP180;56625;54.322;18.582;2022-10-04T08:16:08;100812.80;;;14.60
69435;BMP180;56625;54.322;18.582;2022-10-04T08:18:53;100817.00;;;14.80
69435;BMP180;56625;54.322;18.582;2022-10-04T08:21:39;100815.20;;;14.70
69435;BMP180;56625;54.322;18.582;2022-10-04T08:24:55;100819.00;;;14.70
69435;BMP180;56625;54.322;18.582;2022-10-04T08:28:02;100829.00;;;14.44
69435;BMP180;56625;54.322;18.582;2022-10-04T08:31:26;100831.60;;;14.40
69435;BMP180;56625;54.322;18.582;2022-10-04T08:37:16;100841.40;;;15.10
69435;BMP180;56625;54.322;18.582;2022-10-04T08:46:52;100860.80;;;14.70
69435;BMP180;56625;54.322;18.582;2022-10-04T08:52:59;100863.40;;;14.26
69435;BMP180;56625;54.322;18.582;2022-10-04T09:13:34;100880.80;;;15.44
69435;BMP180;56625;54.322;18.582;2022-10-04T09:16:53;100884.00;;;15.50
69435;BMP180;56625;54.322;18.582;2022-10-04T09:22:17;100883.40;;;15.50
69435;BMP180;56625;54.322;18.582;2022-10-04T09:25:12;100883.80;;;15.60
69435;BMP180;56625;54.322;18.582;2022-10-04T09:30:51;100888.80;;;15.90
69435;BMP180;56625;54.322;18.582;2022-10-04T09:33:32;100893.60;;;16.00
69435;BMP180;56625;54.322;18.582;2022-10-04T09:36:31;100894.80;;;15.96
69435;BMP180;56625;54.322;18.582;2022-10-04T09:42:41;100905.00;;;15.90
69435;BMP180;56625;54.322;18.582;2022-10-04T09:48:41;100924.00;;;15.60
69435;BMP180;56625;54.322;18.582;2022-10-04T09:51:39;100919.80;;;15.64
69435;BMP180;56625;54.322;18.582;2022-10-04T09:58:05;100925.40;;;15.90
69435;BMP180;56625;54.322;18.582;2022-10-04T10:00:22;100925.00;;;16.16
69435;BMP180;56625;54.322;18.582;2022-10-04T10:03:20;100920.80;;;16.30
69435;BMP180;56625;54.322;18.582;2022-10-04T10:06:18;100918.80;;;16.50
69435;BMP180;56625;54.322;18.582;2022-10-04T10:09:14;100926.40;;;16.78
69435;BMP180;56625;54.322;18.582;2022-10-04T10:15:44;100935.60;;;16.60
69435;BMP180;56625;54.322;18.582;2022-10-04T10:27:52;100940.80;;;16.60
69435;BMP180;56625;54.322;18.582;2022-10-04T10:30:55;100946.80;;;16.70
69435;BMP180;56625;54.322;18.582;2022-10-04T10:36:43;100947.20;;;16.70
69435;BMP180;56625;54.322;18.582;2022-10-04T10:42:59;100955.80;;;16.60
69435;BMP180;56625;54.322;18.582;2022-10-04T10:46:00;100958.40;;;16.50
69435;BMP180;56625;54.322;18.582;2022-10-04T10:55:38;100957.60;;;16.58
69435;BMP180;56625;54.322;18.582;2022-10-04T11:01:38;100973.80;;;16.50
69435;BMP180;56625;54.322;18.582;2022-10-04T11:16:50;100993.40;;;17.08
69435;BMP180;56625;54.322;18.582;2022-10-04T11:23:05;100991.60;;;17.20
69435;BMP180;56625;54.322;18.582;2022-10-04T11:26:44;100996.40;;;17.00
69435;BMP180;56625;54.322;18.582;2022-10-04T11:28:58;100997.20;;;16.98
69435;BMP180;56625;54.322;18.582;2022-10-04T11:34:58;100998.20;;;16.84
69435;BMP180;56625;54.322;18.582;2022-10-04T11:56:49;101012.60;;;16.10
69435;BMP180;56625;54.322;18.582;2022-10-04T12:05:37;101001.40;;;16.22
69435;BMP180;56625;54.322;18.582;2022-10-04T12:08:30;101000.80;;;16.46
69435;BMP180;56625;54.322;18.582;2022-10-04T12:11:41;101000.60;;;16.40
69435;BMP180;56625;54.322;18.582;2022-10-04T12:15:01;101002.40;;;16.60
69435;BMP180;56625;54.322;18.582;2022-10-04T12:17:44;101006.00;;;16.80
69435;BMP180;56625;54.322;18.582;2022-10-04T12:35:59;101005.80;;;16.90
69435;BMP180;56625;54.322;18.582;2022-10-04T12:42:06;101016.40;;;16.70
69435;BMP180;56625;54.322;18.582;2022-10-04T12:51:33;101026.60;;;16.40
69435;BMP180;56625;54.322;18.582;2022-10-04T12:54:38;101032.80;;;16.30
69435;BMP180;56625;54.322;18.582;2022-10-04T12:57:43;101044.80;;;16.20
69435;BMP180;56625;54.322;18.582;2022-10-04T13:03:07;101036.40;;;16.28
69435;BMP180;56625;54.322;18.582;2022-10-04T13:05:54;101039.80;;;16.40
69435;BMP180;56625;54.322;18.582;2022-10-04T13:08:59;101034.20;;;16.54
69435;BMP180;56625;54.322;18.582;2022-10-04T13:17:44;101029.80;;;17.06
69435;BMP180;56625;54.322;18.582;2022-10-04T13:20:39;101030.60;;;17.00
69435;BMP180;56625;54.322;18.582;2022-10-04T13:26:29;101038.40;;;17.00
69435;BMP180;56625;54.322;18.582;2022-10-04T13:29:23;101042.60;;;16.82
69435;BMP180;56625;54.322;18.582;2022-10-04T13:32:09;101050.00;;;16.60
69435;BMP180;56625;54.322;18.582;2022-10-04T13:35:16;101045.40;;;16.50
69435;BMP180;56625;54.322;18.582;2022-10-04T13:38:33;101047.00;;;16.40
69435;BMP180;56625;54.322;18.582;2022-10-04T13:41:45;101043.60;;;16.30
69435;BMP180;56625;54.322;18.582;2022-10-04T13:47:54;101049.20;;;16.50
69435;BMP180;56625;54.322;18.582;2022-10-04T13:50:56;101050.80;;;16.60
69435;BMP180;56625;54.322;18.582;2022-10-04T13:54:11;101057.80;;;16.60
69435;BMP180;56625;54.322;18.582;2022-10-04T13:57:51;101055.20;;;16.70
69435;BMP180;56625;54.322;18.582;2022-10-04T14:04:14;101058.00;;;16.50
69435;BMP180;56625;54.322;18.582;2022-10-04T14:20:23;101079.20;;;16.20
69435;BMP180;56625;54.322;18.582;2022-10-04T14:29:28;101081.20;;;15.70
69435;BMP180;56625;54.322;18.582;2022-10-04T14:35:33;101082.00;;;15.50
69435;BMP180;56625;54.322;18.582;2022-10-04T14:40:55;101084.80;;;15.50
69435;BMP180;56625;54.322;18.582;2022-10-04T14:44:02;101085.40;;;15.50
69435;BMP180;56625;54.322;18.582;2022-10-04T14:50:02;101094.80;;;15.40
69435;BMP180;56625;54.322;18.582;2022-10-04T14:55:30;101095.40;;;15.30
69435;BMP180;56625;54.322;18.582;2022-10-04T14:58:36;101098.00;;;15.30
69435;BMP180;56625;54.322;18.582;2022-10-04T15:01:24;101097.80;;;15.20
69435;BMP180;56625;54.322;18.582;2022-10-04T15:07:14;101110.20;;;15.20
69435;BMP180;56625;54.322;18.582;2022-10-04T15:09:56;101107.20;;;15.16
69435;BMP180;56625;54.322;18.582;2022-10-04T15:13:01;101110.00;;;15.20
69435;BMP180;56625;54.322;18.582;2022-10-04T15:16:01;101110.40;;;15.20
69435;BMP180;56625;54.322;18.582;2022-10-04T15:21:44;101115.20;;;15.10
69435;BMP180;56625;54.322;18.582;2022-10-04T15:29:25;101124.20;;;15.04
69435;BMP180;56625;54.322;18.582;2022-10-04T15:32:05;101126.20;;;15.00
69435;BMP180;56625;54.322;18.582;2022-10-04T15:35:16;101128.40;;;15.00
69435;BMP180;56625;54.322;18.582;2022-10-04T15:38:29;101125.40;;;14.90
69435;BMP180;56625;54.322;18.582;2022-10-04T15:41:17;101117.40;;;14.80
69435;BMP180;56625;54.322;18.582;2022-10-04T15:58:24;101138.00;;;14.30
69435;BMP180;56625;54.322;18.582;2022-10-04T16:04:16;101133.20;;;14.10
69435;BMP180;56625;54.322;18.582;2022-10-04T16:06:58;101144.20;;;14.00
69435;BMP180;56625;54.322;18.582;2022-10-04T16:09:37;101145.60;;;13.98
69435;BMP180;56625;54.322;18.582;2022-10-04T16:15:30;101149.60;;;13.80
69435;BMP180;56625;54.322;18.582;2022-10-04T16:18:42;101153.40;;;13.70
69435;BMP180;56625;54.322;18.582;2022-10-04T16:32:00;101167.20;;;13.30
69435;BMP180;56625;54.322;18.582;2022-10-04T16:34:51;101173.40;;;13.20
69435;BMP180;56625;54.322;18.582;2022-10-04T16:40:36;101188.20;;;13.10
69435;BMP180;56625;54.322;18.582;2022-10-04T16:43:22;101185.20;;;13.08
69435;BMP180;56625;54.322;18.582;2022-10-04T16:46:08;101185.00;;;13.00
69435;BMP180;56625;54.322;18.582;2022-10-04T16:54:02;101190.80;;;12.70
69435;BMP180;56625;54.322;18.582;2022-10-04T17:02:37;101182.40;;;12.60
69435;BMP180;56625;54.322;18.582;2022-10-04T17:13:34;101181.00;;;12.50
69435;BMP180;56625;54.322;18.582;2022-10-04T17:16:13;101183.60;;;12.40
69435;BMP180;56625;54.322;18.582;2022-10-04T17:19:30;101176.60;;;12.38
69435;BMP180;56625;54.322;18.582;2022-10-04T17:36:36;101180.60;;;11.82
69435;BMP180;56625;54.322;18.582;2022-10-04T17:45:13;101174.20;;;11.70
69435;BMP180;56625;54.322;18.582;2022-10-04T17:48:14;101175.20;;;11.70
69435;BMP180;56625;54.322;18.582;2022-10-04T17:51:38;101182.00;;;11.70
69435;BMP180;56625;54.322;18.582;2022-10-04T17:54:40;101178.20;;;11.60
69435;BMP180;56625;54.322;18.582;2022-10-04T17:57:59;101172.80;;;11.50
69435;BMP180;56625;54.322;18.582;2022-10-04T18:00:58;101174.60;;;11.40
69435;BMP180;56625;54.322;18.582;2022-10-04T18:07:00;101173.20;;;11.40
69435;BMP180;56625;54.322;18.582;2022-10-04T18:09:41;101175.20;;;11.40
69435;BMP180;56625;54.322;18.582;2022-10-04T18:12:23;101172.40;;;11.30
69435;BMP180;56625;54.322;18.582;2022-10-04T18:15:14;101172.40;;;11.20
69435;BMP180;56625;54.322;18.582;2022-10-04T18:17:49;101174.60;;;11.20
69435;BMP180;56625;54.322;18.582;2022-10-04T18:20:35;101179.60;;;11.10
69435;BMP180;56625;54.322;18.582;2022-10-04T18:23:23;101187.40;;;10.96
69435;BMP180;56625;54.322;18.582;2022-10-04T18:26:22;101193.60;;;10.82
69435;BMP180;56625;54.322;18.582;2022-10-04T18:28:52;101191.40;;;10.70
69435;BMP180;56625;54.322;18.582;2022-10-04T18:31:38;101195.00;;;10.70
69435;BMP180;56625;54.322;18.582;2022-10-04T18:34:26;101196.80;;;10.60
69435;BMP180;56625;54.322;18.582;2022-10-04T18:37:20;101202.40;;;10.60
69435;BMP180;56625;54.322;18.582;2022-10-04T18:40:13;101203.40;;;10.52
69435;BMP180;56625;54.322;18.582;2022-10-04T18:42:58;101204.60;;;10.50
69435;BMP180;56625;54.322;18.582;2022-10-04T18:45:31;101208.00;;;10.60
69435;BMP180;56625;54.322;18.582;2022-10-04T18:48:13;101209.20;;;10.60
69435;BMP180;56625;54.322;18.582;2022-10-04T18:50:42;101211.00;;;10.60
69435;BMP180;56625;54.322;18.582;2022-10-04T18:56:10;101206.20;;;10.70
69435;BMP180;56625;54.322;18.582;2022-10-04T18:59:06;101205.80;;;10.72
69435;BMP180;56625;54.322;18.582;2022-10-04T19:05:16;101222.20;;;10.80
69435;BMP180;56625;54.322;18.582;2022-10-04T19:10:39;101225.40;;;10.90
69435;BMP180;56625;54.322;18.582;2022-10-04T19:13:41;101228.00;;;10.90
69435;BMP180;56625;54.322;18.582;2022-10-04T19:16:33;101224.40;;;10.90
69435;BMP180;56625;54.322;18.582;2022-10-04T19:19:40;101224.80;;;10.90
69435;BMP180;56625;54.322;18.582;2022-10-04T19:31:15;101207.80;;;11.00
69435;BMP180;56625;54.322;18.582;2022-10-04T19:37:29;101210.60;;;11.00
69435;BMP180;56625;54.322;18.582;2022-10-04T19:40:25;101208.20;;;11.00
69435;BMP180;56625;54.322;18.582;2022-10-04T19:43:17;101193.80;;;11.00
69435;BMP180;56625;54.322;18.582;2022-10-04T19:48:45;101187.80;;;11.10
69435;BMP180;56625;54.322;18.582;2022-10-04T19:54:11;101195.60;;;11.10
69435;BMP180;56625;54.322;18.582;2022-10-04T19:56:47;101194.20;;;11.10
69435;BMP180;56625;54.322;18.582;2022-10-04T19:59:35;101187.40;;;11.10
69435;BMP180;56625;54.322;18.582;2022-10-04T20:02:12;101176.80;;;11.10
69435;BMP180;56625;54.322;18.582;2022-10-04T20:04:39;101177.60;;;11.16
69435;BMP180;56625;54.322;18.582;2022-10-04T20:07:26;101180.20;;;11.16
69435;BMP180;56625;54.322;18.582;2022-10-04T20:10:22;101174.80;;;11.12
69435;BMP180;56625;54.322;18.582;2022-10-04T20:26:38;101201.80;;;11.16
69435;BMP180;56625;54.322;18.582;2022-10-04T20:32:10;101187.40;;;11.22
69435;BMP180;56625;54.322;18.582;2022-10-04T20:35:03;101183.00;;;11.30
69435;BMP180;56625;54.322;18.582;2022-10-04T20:45:50;101181.00;;;11.28
69435;BMP180;56625;54.322;18.582;2022-10-04T20:48:26;101185.80;;;11.30
69435;BMP180;56625;54.322;18.582;2022-10-04T20:50:54;101195.40;;;11.20
69435;BMP180;56625;54.322;18.582;2022-10-04T20:53:24;101201.20;;;11.20
69435;BMP180;56625;54.322;18.582;2022-10-04T20:56:30;101203.60;;;11.20
69435;BMP180;56625;54.322;18.582;2022-10-04T20:59:01;101200.60;;;11.20
69435;BMP180;56625;54.322;18.582;2022-10-04T21:01:32;101201.40;;;11.30
69435;BMP180;56625;54.322;18.582;2022-10-04T21:04:27;101207.60;;;11.30
69435;BMP180;56625;54.322;18.582;2022-10-04T21:07:24;101209.80;;;11.30
69435;BMP180;56625;54.322;18.582;2022-10-04T21:10:05;101215.60;;;11.20
69435;BMP180;56625;54.322;18.582;2022-10-04T21:17:34;101207.00;;;11.10
69435;BMP180;56625;54.322;18.582;2022-10-04T21:20:03;101206.80;;;11.10
69435;BMP180;56625;54.322;18.582;2022-10-04T21:22:32;101201.80;;;11.10
69435;BMP180;56625;54.322;18.582;2022-10-04T21:25:04;101201.60;;;11.10
69435;BMP180;56625;54.322;18.582;2022-10-04T21:27:38;101205.80;;;11.00
69435;BMP180;56625;54.322;18.582;2022-10-04T21:30:13;101206.40;;;11.00
69435;BMP180;56625;54.322;18.582;2022-10-04T21:32:40;101200.00;;;11.00
69435;BMP180;56625;54.322;18.582;2022-10-04T21:35:08;101194.40;;;10.90
69435;BMP180;56625;54.322;18.582;2022-10-04T21:37:35;101192.00;;;10.90
69435;BMP180;56625;54.322;18.582;2022-10-04T21:40:04;101195.20;;;10.90
69435;BMP180;56625;54.322;18.582;2022-10-04T21:42:30;101195.20;;;10.90
69435;BMP180;56625;54.322;18.582;2022-10-04T21:44:57;101195.20;;;10.90
69435;BMP180;56625;54.322;18.582;2022-10-04T21:47:24;101195.20;;;10.80
69435;BMP180;56625;54.322;18.582;2022-10-04T21:49:51;101202.00;;;10.82
69435;BMP180;56625;54.322;18.582;2022-10-04T21:52:17;101206.00;;;10.82
69435;BMP180;56625;54.322;18.582;2022-10-04T21:54:44;101202.20;;;10.84
69435;BMP180;56625;54.322;18.582;2022-10-04T21:57:12;101204.60;;;10.86
69435;BMP180;56625;54.322;18.582;2022-10-04T21:59:38;101206.20;;;10.90
69435;BMP180;56625;54.322;18.582;2022-10-04T22:02:05;101208.80;;;10.90
69435;BMP180;56625;54.322;18.582;2022-10-04T22:04:33;101210.00;;;10.90
69435;BMP180;56625;54.322;18.582;2022-10-04T22:06:59;101211.20;;;10.90
69435;BMP180;56625;54.322;18.582;2022-10-04T22:09:25;101204.00;;;11.00
69435;BMP180;56625;54.322;18.582;2022-10-04T22:11:52;101204.80;;;11.10
69435;BMP180;56625;54.322;18.582;2022-10-04T22:14:18;101201.60;;;11.14